createdAt,value
2022-07-29T00:01:43.297Z,26.30
2022-07-29T00:04:11.491Z,26.30
2022-07-29T00:06:39.371Z,26.20
2022-07-29T00:09:06.972Z,26.30
2022-07-29T00:11:34.495Z,26.30
2022-07-29T00:14:02.061Z,26.30
2022-07-29T00:16:29.624Z,26.30
2022-07-29T00:18:59.556Z,26.30
2022-07-29T00:21:29.718Z,26.40
2022-07-29T00:23:57.081Z,26.40
2022-07-29T00:26:24.456Z,26.40
2022-07-29T00:28:51.769Z,26.40
2022-07-29T00:31:19.215Z,26.40
2022-07-29T00:33:46.673Z,26.30
2022-07-29T00:36:14.105Z,26.20
2022-07-29T00:38:45.280Z,26.10
2022-07-29T00:41:13.292Z,26.20
2022-07-29T00:43:40.743Z,26.20
2022-07-29T00:46:08.145Z,26.20
2022-07-29T00:48:35.846Z,26.20
2022-07-29T00:51:04.793Z,26.20
2022-07-29T00:53:33.461Z,26.10
2022-07-29T00:56:00.868Z,26.20
2022-07-29T00:58:28.542Z,26.20
2022-07-29T01:00:56.110Z,26.20
2022-07-29T01:03:23.624Z,26.10
2022-07-29T01:05:52.037Z,26.10
2022-07-29T01:08:20.472Z,26.20
2022-07-29T01:10:48.775Z,26.20
2022-07-29T01:13:17.411Z,26.20
2022-07-29T01:15:48.819Z,26.20
2022-07-29T01:18:25.198Z,26.20
2022-07-29T01:21:06.264Z,26.20
2022-07-29T01:23:52.337Z,26.20
2022-07-29T01:26:22.462Z,26.20
2022-07-29T01:29:12.776Z,26.20
2022-07-29T01:31:58.983Z,26.10
2022-07-29T01:34:49.694Z,26.10
2022-07-29T01:37:32.958Z,26.10
2022-07-29T01:40:02.974Z,26.10
2022-07-29T01:42:46.037Z,26.10
2022-07-29T01:45:41.638Z,26.00
2022-07-29T01:48:17.873Z,26.00
2022-07-29T01:50:51.511Z,25.90
2022-07-29T01:53:37.879Z,25.90
2022-07-29T01:56:09.928Z,25.90
2022-07-29T01:58:41.413Z,25.90
2022-07-29T02:01:12.178Z,26.00
2022-07-29T02:03:43.891Z,25.90
2022-07-29T02:06:13.445Z,25.90
2022-07-29T02:08:41.775Z,25.80
2022-07-29T02:11:10.077Z,25.90
2022-07-29T02:13:38.917Z,25.80
2022-07-29T02:16:09.555Z,25.80
2022-07-29T02:18:40.098Z,25.80
2022-07-29T02:21:15.777Z,25.80
2022-07-29T02:23:51.140Z,25.70
2022-07-29T02:26:20.476Z,25.70
2022-07-29T02:28:49.822Z,25.70
2022-07-29T02:31:20.538Z,25.70
2022-07-29T02:33:49.039Z,25.70
2022-07-29T02:36:17.517Z,25.80
2022-07-29T02:38:52.626Z,25.70
2022-07-29T02:41:31.340Z,25.70
2022-07-29T02:44:05.931Z,25.70
2022-07-29T02:46:36.766Z,25.50
2022-07-29T02:49:18.480Z,25.50
2022-07-29T02:52:21.143Z,25.50
2022-07-29T02:55:07.865Z,25.40
2022-07-29T02:57:53.971Z,25.30
2022-07-29T03:00:26.197Z,25.30
2022-07-29T03:02:57.074Z,25.30
2022-07-29T03:05:25.353Z,25.30
2022-07-29T03:08:05.497Z,25.30
2022-07-29T03:10:33.724Z,25.30
2022-07-29T03:13:02.080Z,25.20
2022-07-29T03:15:30.307Z,25.10
2022-07-29T03:17:59.122Z,25.10
2022-07-29T03:20:28.429Z,25.10
2022-07-29T03:22:55.874Z,25.10
2022-07-29T03:25:23.381Z,25.00
2022-07-29T03:27:50.964Z,25.00
2022-07-29T03:30:22.077Z,25.00
2022-07-29T03:32:52.085Z,25.10
2022-07-29T03:35:21.013Z,25.10
2022-07-29T03:37:48.480Z,25.10
2022-07-29T03:40:23.584Z,25.10
2022-07-29T03:42:52.673Z,25.10
2022-07-29T03:45:21.546Z,25.10
2022-07-29T03:47:59.893Z,25.10
2022-07-29T03:50:29.999Z,25.00
2022-07-29T03:52:58.137Z,25.10
2022-07-29T03:55:27.224Z,25.00
2022-07-29T03:57:56.728Z,25.00
2022-07-29T04:00:26.561Z,25.00
2022-07-29T04:02:54.023Z,25.00
2022-07-29T04:05:22.181Z,25.10
2022-07-29T04:07:50.162Z,25.10
2022-07-29T04:10:26.314Z,25.10
2022-07-29T04:13:00.363Z,25.20
2022-07-29T04:15:31.018Z,25.10
2022-07-29T04:18:00.361Z,25.10
2022-07-29T04:20:28.221Z,25.00
2022-07-29T04:22:55.561Z,25.00
2022-07-29T04:25:23.108Z,25.00
2022-07-29T04:28:02.676Z,25.00
2022-07-29T04:30:31.674Z,25.00
2022-07-29T04:32:59.809Z,25.10
2022-07-29T04:35:27.629Z,25.20
2022-07-29T04:37:55.139Z,25.10
2022-07-29T04:40:22.885Z,25.10
2022-07-29T04:42:50.257Z,25.10
2022-07-29T04:45:22.226Z,25.10
2022-07-29T04:47:50.824Z,25.10
2022-07-29T04:50:18.222Z,25.00
2022-07-29T04:52:45.615Z,25.10
2022-07-29T04:55:13.199Z,25.10
2022-07-29T04:57:40.589Z,25.10
2022-07-29T05:00:08.925Z,25.20
2022-07-29T05:02:36.320Z,25.20
2022-07-29T05:05:03.966Z,25.20
2022-07-29T05:07:31.387Z,25.10
2022-07-29T05:09:58.890Z,25.10
2022-07-29T05:12:26.930Z,25.00
2022-07-29T05:14:54.542Z,25.10
2022-07-29T05:17:21.928Z,25.10
2022-07-29T05:19:49.391Z,25.20
2022-07-29T05:22:16.717Z,25.20
2022-07-29T05:24:44.098Z,25.40
2022-07-29T05:27:11.542Z,25.40
2022-07-29T05:29:42.595Z,25.50
2022-07-29T05:32:13.558Z,25.50
2022-07-29T05:34:50.076Z,25.50
2022-07-29T05:37:20.534Z,25.60
2022-07-29T05:39:50.453Z,25.60
2022-07-29T05:42:23.834Z,25.60
2022-07-29T05:44:51.795Z,25.70
2022-07-29T05:47:19.801Z,25.70
2022-07-29T05:49:47.301Z,25.80
2022-07-29T05:52:14.773Z,25.80
2022-07-29T05:54:42.336Z,25.90
2022-07-29T05:57:15.724Z,25.80
2022-07-29T05:59:43.011Z,26.00
2022-07-29T06:02:10.399Z,25.90
2022-07-29T06:04:37.821Z,25.90
2022-07-29T06:07:05.763Z,26.00
2022-07-29T06:09:36.154Z,25.90
2022-07-29T06:12:04.248Z,25.90
2022-07-29T06:14:31.701Z,25.80
2022-07-29T06:16:59.183Z,25.80
2022-07-29T06:19:26.856Z,25.80
2022-07-29T06:21:54.592Z,25.70
2022-07-29T06:24:21.994Z,25.70
2022-07-29T06:26:49.404Z,25.70
2022-07-29T06:29:16.805Z,25.80
2022-07-29T06:31:44.212Z,25.70
2022-07-29T06:34:11.609Z,25.80
2022-07-29T06:36:39.715Z,25.90
2022-07-29T06:39:09.233Z,25.90
2022-07-29T06:41:36.847Z,26.00
2022-07-29T06:44:10.841Z,26.10
2022-07-29T06:46:38.380Z,26.10
2022-07-29T06:49:06.195Z,26.20
2022-07-29T06:51:33.843Z,26.30
2022-07-29T06:54:02.738Z,26.40
2022-07-29T06:56:40.337Z,26.40
2022-07-29T06:59:09.645Z,26.50
2022-07-29T07:01:42.136Z,26.60
2022-07-29T07:04:10.652Z,26.60
2022-07-29T07:06:38.712Z,26.80
2022-07-29T07:09:06.569Z,26.80
2022-07-29T07:11:34.073Z,26.90
2022-07-29T07:14:03.792Z,26.90
2022-07-29T07:16:32.694Z,26.90
2022-07-29T07:19:00.568Z,27.00
2022-07-29T07:21:30.308Z,27.10
2022-07-29T07:23:58.551Z,27.00
2022-07-29T07:26:26.359Z,27.10
2022-07-29T07:28:54.070Z,27.00
2022-07-29T07:31:21.529Z,27.10
2022-07-29T07:33:49.125Z,27.20
2022-07-29T07:36:16.508Z,27.30
2022-07-29T07:38:43.915Z,27.40
2022-07-29T07:41:11.296Z,27.40
2022-07-29T07:43:38.825Z,27.40
2022-07-29T07:46:06.399Z,27.50
2022-07-29T07:48:35.890Z,27.60
2022-07-29T07:51:03.259Z,27.60
2022-07-29T07:53:31.432Z,27.70
2022-07-29T07:56:15.465Z,27.80
2022-07-29T07:58:42.950Z,27.90
2022-07-29T08:01:10.678Z,27.90
2022-07-29T08:03:38.747Z,28.10
2022-07-29T08:06:06.585Z,28.20
2022-07-29T08:08:34.163Z,28.20
2022-07-29T08:11:06.906Z,28.30
2022-07-29T08:13:38.635Z,28.30
2022-07-29T08:16:14.385Z,28.40
2022-07-29T08:18:44.067Z,28.50
2022-07-29T08:21:15.273Z,28.50
2022-07-29T08:23:57.643Z,28.50
2022-07-29T08:26:25.451Z,28.70
2022-07-29T08:28:52.806Z,28.70
2022-07-29T08:31:20.297Z,28.70
2022-07-29T08:33:47.724Z,28.90
2022-07-29T08:36:15.155Z,29.00
2022-07-29T08:38:42.563Z,29.20
2022-07-29T08:41:10.244Z,29.30
2022-07-29T08:43:39.132Z,29.30
2022-07-29T08:46:06.685Z,29.30
2022-07-29T08:48:35.220Z,29.40
2022-07-29T08:51:02.854Z,29.40
2022-07-29T08:53:32.827Z,29.50
2022-07-29T08:56:00.811Z,29.60
2022-07-29T08:58:32.253Z,29.70
2022-07-29T09:01:04.879Z,29.70
2022-07-29T09:03:37.641Z,29.70
2022-07-29T09:06:05.648Z,29.80
2022-07-29T09:08:33.844Z,29.90
2022-07-29T09:11:05.324Z,30.00
2022-07-29T09:13:33.451Z,30.10
2022-07-29T09:16:05.639Z,30.20
2022-07-29T09:18:44.700Z,30.20
2022-07-29T09:21:33.223Z,30.30
2022-07-29T09:24:09.376Z,30.30
2022-07-29T09:26:40.016Z,30.30
2022-07-29T09:29:17.966Z,30.40
2022-07-29T09:31:47.923Z,30.40
2022-07-29T09:34:17.869Z,30.50
2022-07-29T09:36:47.547Z,30.60
2022-07-29T09:39:17.730Z,30.60
2022-07-29T09:41:53.959Z,30.70
2022-07-29T09:44:22.767Z,30.80
2022-07-29T09:47:07.654Z,30.90
2022-07-29T09:50:04.700Z,31.00
2022-07-29T09:52:32.109Z,31.00
2022-07-29T09:55:07.107Z,31.00
2022-07-29T09:57:34.575Z,31.00
2022-07-29T10:00:11.037Z,31.00
2022-07-29T10:02:44.448Z,31.10
2022-07-29T10:05:22.230Z,31.10
2022-07-29T10:07:59.153Z,31.20
2022-07-29T10:10:28.079Z,31.30
2022-07-29T10:13:06.937Z,31.40
2022-07-29T10:15:39.545Z,31.50
2022-07-29T10:18:07.882Z,31.60
2022-07-29T10:20:35.778Z,31.70
2022-07-29T10:23:03.971Z,31.80
2022-07-29T10:25:32.386Z,31.90
2022-07-29T10:28:00.085Z,32.00
2022-07-29T10:30:27.980Z,32.00
2022-07-29T10:33:15.210Z,32.00
2022-07-29T10:35:58.518Z,32.10
2022-07-29T10:38:40.874Z,32.10
2022-07-29T10:41:29.111Z,32.10
2022-07-29T10:44:07.594Z,32.10
2022-07-29T10:46:39.785Z,32.30
2022-07-29T10:49:27.819Z,32.30
2022-07-29T10:52:02.464Z,32.50
2022-07-29T10:54:48.861Z,32.50
2022-07-29T10:57:53.905Z,32.50
2022-07-29T11:00:16.966Z,32.60
2022-07-29T11:02:46.831Z,32.70
2022-07-29T11:05:20.127Z,32.80
2022-07-29T11:08:20.066Z,32.80
2022-07-29T11:10:53.486Z,32.90
2022-07-29T11:13:48.887Z,32.90
2022-07-29T11:16:17.104Z,32.90
2022-07-29T11:19:26.386Z,33.00
2022-07-29T11:22:00.449Z,33.00
2022-07-29T11:24:32.130Z,33.10
2022-07-29T11:27:19.779Z,33.20
2022-07-29T11:29:57.272Z,33.30
2022-07-29T11:32:36.078Z,33.30
2022-07-29T11:35:38.297Z,33.40
2022-07-29T11:38:28.856Z,33.50
2022-07-29T11:41:18.499Z,33.50
2022-07-29T11:43:58.398Z,33.50
2022-07-29T11:46:49.617Z,33.60
2022-07-29T11:49:32.365Z,33.60
2022-07-29T11:52:04.931Z,33.60
2022-07-29T11:54:38.743Z,33.60
2022-07-29T11:57:36.027Z,33.50
2022-07-29T12:00:12.493Z,33.50
2022-07-29T12:02:43.811Z,33.50
2022-07-29T12:05:35.920Z,33.50
2022-07-29T12:08:12.696Z,33.60
2022-07-29T12:10:43.377Z,33.60
2022-07-29T12:13:11.963Z,33.70
2022-07-29T12:15:47.188Z,33.80
2022-07-29T12:18:19.672Z,33.70
2022-07-29T12:20:59.438Z,33.80
2022-07-29T12:23:35.126Z,33.90
2022-07-29T12:26:07.284Z,33.80
2022-07-29T12:28:39.423Z,33.90
2022-07-29T12:31:08.257Z,33.90
2022-07-29T12:33:36.094Z,34.10
2022-07-29T12:36:09.559Z,34.10
2022-07-29T12:38:41.269Z,34.10
2022-07-29T12:41:08.802Z,34.10
2022-07-29T12:43:36.346Z,34.10
2022-07-29T12:46:17.149Z,34.10
2022-07-29T12:48:45.333Z,34.10
2022-07-29T12:51:15.333Z,34.10
2022-07-29T12:54:02.258Z,34.20
2022-07-29T12:56:42.195Z,34.20
2022-07-29T12:59:26.424Z,34.20
2022-07-29T13:01:53.787Z,34.20
2022-07-29T13:04:32.482Z,34.10
2022-07-29T13:07:08.344Z,34.00
2022-07-29T13:09:43.541Z,34.00
2022-07-29T13:12:12.901Z,34.10
2022-07-29T13:14:46.389Z,34.20
2022-07-29T13:17:20.067Z,34.20
2022-07-29T13:19:52.242Z,34.30
2022-07-29T13:22:25.749Z,34.40
2022-07-29T13:24:55.789Z,34.50
2022-07-29T13:27:25.585Z,34.40
2022-07-29T13:29:53.902Z,34.30
2022-07-29T13:32:28.436Z,34.30
2022-07-29T13:34:57.766Z,34.40
2022-07-29T13:37:25.322Z,34.40
2022-07-29T13:39:53.924Z,34.40
2022-07-29T13:42:23.457Z,34.40
2022-07-29T13:44:52.600Z,34.40
2022-07-29T13:47:32.221Z,34.40
2022-07-29T13:50:01.862Z,34.40
2022-07-29T13:52:30.041Z,34.60
2022-07-29T13:54:57.716Z,34.60
2022-07-29T13:57:25.433Z,34.80
2022-07-29T13:59:54.359Z,34.80
2022-07-29T14:02:25.920Z,34.90
2022-07-29T14:04:56.093Z,34.70
2022-07-29T14:07:23.950Z,34.60
2022-07-29T14:09:51.473Z,34.50
2022-07-29T14:12:19.098Z,34.30
2022-07-29T14:14:47.184Z,34.00
2022-07-29T14:17:15.863Z,33.80
2022-07-29T14:19:43.852Z,33.70
2022-07-29T14:22:11.332Z,33.50
2022-07-29T14:24:39.381Z,33.50
2022-07-29T14:27:08.231Z,33.30
2022-07-29T14:29:38.278Z,33.20
2022-07-29T14:32:08.060Z,33.20
2022-07-29T14:34:36.778Z,33.10
2022-07-29T14:37:06.424Z,33.10
2022-07-29T14:39:39.306Z,33.00
2022-07-29T14:42:11.627Z,33.00
2022-07-29T14:44:42.261Z,32.90
2022-07-29T14:47:10.411Z,32.70
2022-07-29T14:49:37.930Z,32.70
2022-07-29T14:52:05.619Z,32.60
2022-07-29T14:54:33.273Z,32.60
2022-07-29T14:57:00.677Z,32.50
2022-07-29T14:59:28.213Z,32.40
2022-07-29T15:01:55.720Z,32.40
2022-07-29T15:04:23.338Z,32.30
2022-07-29T15:06:51.117Z,32.20
2022-07-29T15:09:18.965Z,32.10
2022-07-29T15:11:46.333Z,32.10
2022-07-29T15:14:13.696Z,32.00
2022-07-29T15:16:44.053Z,32.00
2022-07-29T15:19:14.486Z,31.90
2022-07-29T15:21:48.445Z,31.90
2022-07-29T15:24:19.822Z,31.80
2022-07-29T15:26:48.265Z,31.80
2022-07-29T15:29:16.289Z,31.80
2022-07-29T15:31:44.297Z,31.70
2022-07-29T15:34:11.760Z,31.70
2022-07-29T15:36:54.763Z,31.60
2022-07-29T15:39:23.237Z,31.60
2022-07-29T15:41:50.878Z,31.50
2022-07-29T15:44:19.256Z,31.40
2022-07-29T15:47:04.514Z,31.40
2022-07-29T15:49:46.370Z,31.30
2022-07-29T15:52:26.191Z,31.30
2022-07-29T15:54:57.733Z,31.30
2022-07-29T15:57:25.690Z,31.30
2022-07-29T15:59:53.182Z,31.20
2022-07-29T16:02:20.615Z,31.20
2022-07-29T16:04:48.043Z,31.20
2022-07-29T16:07:16.216Z,31.10
2022-07-29T16:09:49.296Z,31.00
2022-07-29T16:12:18.573Z,30.90
2022-07-29T16:14:46.048Z,30.80
2022-07-29T16:17:14.592Z,30.70
2022-07-29T16:19:43.767Z,30.60
2022-07-29T16:22:11.718Z,30.60
2022-07-29T16:24:39.463Z,30.50
2022-07-29T16:27:07.468Z,30.50
2022-07-29T16:29:36.968Z,30.40
2022-07-29T16:32:05.958Z,30.20
2022-07-29T16:34:33.684Z,30.00
2022-07-29T16:37:01.164Z,30.00
2022-07-29T16:39:29.492Z,29.90
2022-07-29T16:42:00.218Z,29.80
2022-07-29T16:44:29.143Z,29.80
2022-07-29T16:46:59.362Z,29.70
2022-07-29T16:49:28.435Z,29.70
2022-07-29T16:51:55.990Z,29.60
2022-07-29T16:54:23.410Z,29.50
2022-07-29T16:56:50.764Z,29.50
2022-07-29T16:59:18.472Z,29.50
2022-07-29T17:01:45.898Z,29.40
2022-07-29T17:04:14.991Z,29.40
2022-07-29T17:06:42.586Z,29.40
2022-07-29T17:09:11.605Z,29.30
2022-07-29T17:11:51.956Z,29.30
2022-07-29T17:14:27.717Z,29.30
2022-07-29T17:17:00.186Z,29.40
2022-07-29T17:19:29.940Z,29.30
2022-07-29T17:22:06.458Z,29.30
2022-07-29T17:24:38.117Z,29.30
2022-07-29T17:27:05.945Z,29.40
2022-07-29T17:29:34.839Z,29.30
2022-07-29T17:32:02.298Z,29.40
2022-07-29T17:34:29.707Z,29.30
2022-07-29T17:36:57.893Z,29.20
2022-07-29T17:39:25.546Z,29.20
2022-07-29T17:41:53.249Z,29.20
2022-07-29T17:44:20.657Z,29.10
2022-07-29T17:46:48.310Z,29.20
2022-07-29T17:49:15.793Z,29.10
2022-07-29T17:51:43.353Z,29.10
2022-07-29T17:54:10.722Z,29.00
2022-07-29T17:56:38.306Z,28.90
2022-07-29T17:59:10.131Z,28.90
2022-07-29T18:01:40.043Z,28.90
2022-07-29T18:04:08.887Z,28.80
2022-07-29T18:06:36.443Z,28.80
2022-07-29T18:09:04.567Z,28.90
2022-07-29T18:11:32.532Z,28.80
2022-07-29T18:14:02.504Z,28.80
2022-07-29T18:16:30.096Z,28.80
2022-07-29T18:18:57.468Z,28.80
2022-07-29T18:21:43.397Z,28.80
2022-07-29T18:24:12.309Z,28.80
2022-07-29T18:26:39.769Z,28.70
2022-07-29T18:29:07.156Z,28.70
2022-07-29T18:31:38.042Z,28.70
2022-07-29T18:34:05.489Z,28.80
2022-07-29T18:36:32.910Z,28.70
2022-07-29T18:39:00.284Z,28.70
2022-07-29T18:41:27.740Z,28.70
2022-07-29T18:43:55.146Z,28.70
2022-07-29T18:46:22.533Z,28.70
2022-07-29T18:48:50.446Z,28.70
2022-07-29T18:51:17.814Z,28.80
2022-07-29T18:53:45.571Z,28.80
2022-07-29T18:56:13.072Z,28.80
2022-07-29T18:58:40.482Z,28.80
2022-07-29T19:01:07.882Z,28.80
2022-07-29T19:03:35.372Z,28.70
2022-07-29T19:06:02.979Z,28.70
2022-07-29T19:08:31.603Z,28.60
2022-07-29T19:10:58.980Z,28.50
2022-07-29T19:13:26.431Z,28.40
2022-07-29T19:15:53.879Z,28.30
2022-07-29T19:18:21.288Z,28.00
2022-07-29T19:20:48.688Z,27.70
2022-07-29T19:23:17.221Z,27.50
2022-07-29T19:25:53.004Z,27.30
2022-07-29T19:28:22.055Z,27.20
2022-07-29T19:30:50.104Z,27.00
2022-07-29T19:33:19.032Z,26.90
2022-07-29T19:35:49.332Z,26.90
2022-07-29T19:38:18.966Z,26.80
2022-07-29T19:40:46.482Z,26.70
2022-07-29T19:43:49.720Z,26.60
2022-07-29T19:46:01.697Z,26.50
2022-07-29T19:48:29.228Z,26.60
2022-07-29T19:50:56.970Z,26.50
2022-07-29T19:53:24.467Z,26.40
2022-07-29T19:55:51.950Z,26.30
2022-07-29T19:58:19.548Z,26.20
2022-07-29T20:00:49.988Z,26.20
2022-07-29T20:03:17.552Z,26.20
2022-07-29T20:05:48.020Z,26.20
2022-07-29T20:08:15.805Z,26.20
2022-07-29T20:10:43.373Z,26.10
2022-07-29T20:13:10.940Z,26.10
2022-07-29T20:15:38.451Z,26.10
2022-07-29T20:18:06.058Z,26.10
2022-07-29T20:20:33.607Z,26.20
2022-07-29T20:23:02.442Z,26.20
2022-07-29T20:25:30.024Z,26.30
2022-07-29T20:27:57.423Z,26.50
2022-07-29T20:30:24.931Z,26.50
2022-07-29T20:32:52.335Z,26.50
2022-07-29T20:35:22.465Z,26.40
2022-07-29T20:37:55.619Z,26.30
2022-07-29T20:40:25.665Z,26.30
2022-07-29T20:42:54.063Z,26.30
2022-07-29T20:45:23.440Z,26.40
2022-07-29T20:47:52.151Z,26.40
2022-07-29T20:50:23.427Z,26.40
2022-07-29T20:52:52.236Z,26.40
2022-07-29T20:55:19.739Z,26.20
2022-07-29T20:57:47.115Z,26.00
2022-07-29T21:00:14.724Z,25.80
2022-07-29T21:02:42.424Z,25.70
2022-07-29T21:05:10.108Z,25.80
2022-07-29T21:07:37.481Z,25.80
2022-07-29T21:10:05.353Z,25.90
2022-07-29T21:12:33.800Z,26.00
2022-07-29T21:15:06.261Z,26.00
2022-07-29T21:17:36.090Z,26.10
2022-07-29T21:20:06.714Z,26.10
2022-07-29T21:22:34.308Z,26.30
2022-07-29T21:25:01.733Z,26.30
2022-07-29T21:27:47.803Z,26.30
2022-07-29T21:30:15.216Z,26.20
2022-07-29T21:32:42.698Z,26.10
2022-07-29T21:35:23.368Z,26.10
2022-07-29T21:37:59.341Z,26.00
2022-07-29T21:40:26.699Z,26.00
2022-07-29T21:42:54.078Z,26.10
2022-07-29T21:45:21.530Z,26.00
2022-07-29T21:47:48.890Z,26.00
2022-07-29T21:50:16.288Z,26.00
2022-07-29T21:52:43.729Z,25.90
2022-07-29T21:55:11.477Z,25.80
2022-07-29T21:57:39.042Z,25.70
2022-07-29T22:00:10.564Z,25.70
2022-07-29T22:02:40.583Z,25.70
2022-07-29T22:05:08.729Z,25.60
2022-07-29T22:07:54.487Z,25.50
2022-07-29T22:10:27.814Z,25.40
2022-07-29T22:12:57.937Z,25.50
2022-07-29T22:15:27.206Z,25.40
2022-07-29T22:17:54.692Z,25.40
2022-07-29T22:20:22.400Z,25.40
2022-07-29T22:22:49.767Z,25.30
2022-07-29T22:25:17.871Z,25.30
2022-07-29T22:27:45.397Z,25.40
2022-07-29T22:30:13.725Z,25.40
2022-07-29T22:32:41.975Z,25.30
2022-07-29T22:35:10.384Z,25.10
2022-07-29T22:37:38.036Z,25.10
2022-07-29T22:40:06.226Z,25.10
2022-07-29T22:42:35.084Z,25.10
2022-07-29T22:45:02.700Z,25.20
2022-07-29T22:47:46.422Z,25.20
2022-07-29T22:50:16.961Z,25.20
2022-07-29T22:52:48.304Z,25.10
2022-07-29T22:55:16.076Z,25.10
2022-07-29T22:57:43.518Z,25.20
2022-07-29T23:00:11.891Z,25.20
2022-07-29T23:02:40.322Z,25.10
2022-07-29T23:05:09.005Z,25.10
2022-07-29T23:07:36.636Z,25.10
2022-07-29T23:10:04.935Z,25.10
2022-07-29T23:12:32.294Z,25.10
2022-07-29T23:14:59.700Z,25.10
2022-07-29T23:17:27.123Z,25.10
2022-07-29T23:19:54.447Z,25.10
2022-07-29T23:22:21.786Z,25.10
2022-07-29T23:24:49.111Z,25.10
2022-07-29T23:27:16.543Z,25.00
2022-07-29T23:29:43.894Z,25.00
2022-07-29T23:32:11.233Z,24.90
2022-07-29T23:34:38.688Z,25.00
2022-07-29T23:37:06.179Z,24.90
2022-07-29T23:39:33.566Z,25.00
2022-07-29T23:42:01.131Z,25.00
2022-07-29T23:44:28.531Z,25.00
2022-07-29T23:46:55.901Z,25.00
2022-07-29T23:49:23.377Z,25.00
2022-07-29T23:51:50.832Z,25.00
2022-07-29T23:54:18.195Z,24.90
2022-07-29T23:56:45.563Z,24.90
2022-07-29T23:59:13.879Z,24.80
